Terminal Aerodrome Forecast
Issued by NWS

Home | Current Version | Previous Version | Text Only | Print | Product List | Glossary On
Versions: 1 2 3 4 5 6 7 8 9 10 11 12 13 14
308
FTUS44 KTSA 252323
TAFFYV
TAF
KFYV 252323Z 2600/2624 18011KT P6SM SCT250
     FM260200 18008KT P6SM SCT250
     FM261300 18014G20KT P6SM BKN025
     FM262000 19015G23KT P6SM BKN040=

USA.gov is the U.S. government's official web portal to all federal, state and local government web resources and services.